Time;durP1;ratioP1;P1;durP2;ratioP2;P2;SDS_P1;SDS_P2;PMS_P1;PMS_P2;Temp;Humidity;BMP_temperature;BMP_pressure;BME280_temperature;BME280_humidity;BME280_pressure;Samples;Min_cycle;Max_cycle;Signal;HPM_P1;HPM_P2
2024/02/20 00:01:06;;;;;;;;;;;;;;;17.89;61.44;101706.44;7391288;19;1009;-40
2024/02/20 00:03:35;;;;;;;;;;;;;;;17.83;61.34;101698.84;7389965;19;1211;-35
2024/02/20 00:06:03;;;;;;;;;;;;;;;17.67;61.84;101685.63;7388072;19;1643;-37
2024/02/20 00:08:31;;;;;;;;;;;;;;;17.54;62.26;101686.53;7389650;19;1486;-33
2024/02/20 00:11:04;;;;;;;;;;;;;;;17.55;62.24;101690.91;7388183;19;1715;-35
2024/02/20 00:13:33;;;;;;;;;;;;;;;17.47;62.43;101691.47;7374779;19;1526;-37
2024/02/20 00:16:02;;;;;;;;;;;;;;;17.50;62.30;101686.75;7386784;19;2311;-35
2024/02/20 00:18:30;;;;;;;;;;;;;;;17.45;62.43;101688.88;7387846;19;1858;-33
2024/02/20 00:20:58;;;;;;;;;;;;;;;17.56;62.12;101680.13;7393547;19;1236;-35
2024/02/20 00:23:26;;;;;;;;;;;;;;;17.83;61.46;101688.13;7398893;19;1573;-36
2024/02/20 00:25:55;;;;;;;;;;;;;;;18.18;60.68;101686.63;7397960;19;1635;-35
2024/02/20 00:28:26;;;;;;;;;;;;;;;18.42;60.03;101694.75;7395685;19;1103;-35
2024/02/20 00:30:54;;;;;;;;;;;;;;;18.11;60.66;101670.16;7399143;19;1937;-35
2024/02/20 00:33:22;;;;;;;;;;;;;;;17.95;61.03;101670.38;7395468;19;1462;-40
2024/02/20 00:35:51;;;;;;;;;;;;;;;17.87;61.25;101694.13;7398317;19;1290;-35
2024/02/20 00:38:19;;;;;;;;;;;;;;;17.85;61.16;101686.22;7395032;19;1846;-33
2024/02/20 00:40:47;;;;;;;;;;;;;;;17.74;61.42;101678.00;7397505;19;1090;-36
2024/02/20 00:43:16;;;;;;;;;;;;;;;17.64;61.73;101691.16;7393236;19;1459;-43
2024/02/20 00:45:47;;;;;;;;;;;;;;;17.61;61.70;101687.88;7395658;19;1735;-35
2024/02/20 00:48:15;;;;;;;;;;;;;;;17.50;62.07;101678.72;7395688;19;1583;-34
2024/02/20 00:50:44;;;;;;;;;;;;;;;17.46;62.07;101682.56;7396406;19;1387;-37
2024/02/20 00:53:13;;;;;;;;;;;;;;;17.32;62.42;101693.31;7398090;19;1721;-34
2024/02/20 00:55:41;;;;;;;;;;;;;;;17.62;61.84;101686.88;7397896;19;1158;-34
2024/02/20 00:58:09;;;;;;;;;;;;;;;17.87;61.05;101672.72;7395091;19;1857;-39
2024/02/20 01:00:38;;;;;;;;;;;;;;;18.25;60.44;101687.94;7395891;19;1493;-37
2024/02/20 01:03:09;;;;;;;;;;;;;;;18.38;59.93;101687.91;7395994;19;1203;-35
2024/02/20 01:05:38;;;;;;;;;;;;;;;18.07;60.73;101676.69;7395844;19;1629;-35
2024/02/20 01:08:07;;;;;;;;;;;;;;;17.88;60.94;101691.31;7396727;19;1683;-37
2024/02/20 01:10:35;;;;;;;;;;;;;;;17.70;61.53;101677.38;7394040;19;1723;-35
2024/02/20 01:13:03;;;;;;;;;;;;;;;17.76;61.25;101675.25;7378921;19;2412;-35
2024/02/20 01:15:32;;;;;;;;;;;;;;;17.74;61.20;101687.88;7393819;19;1199;-35
2024/02/20 01:18:00;;;;;;;;;;;;;;;17.68;61.43;101678.44;7393140;19;1841;-34
2024/02/20 01:20:31;;;;;;;;;;;;;;;17.64;61.39;101668.91;7394225;19;1648;-39
2024/02/20 01:22:59;;;;;;;;;;;;;;;17.57;61.52;101664.97;7394689;19;1339;-36
2024/02/20 01:25:29;;;;;;;;;;;;;;;17.41;61.95;101659.78;7393512;19;1247;-35
2024/02/20 01:27:57;;;;;;;;;;;;;;;17.48;61.83;101664.59;7395534;19;1331;-34
2024/02/20 01:30:26;;;;;;;;;;;;;;;17.83;61.19;101673.88;7391721;19;1437;-36
2024/02/20 01:32:57;;;;;;;;;;;;;;;18.15;60.40;101644.88;7394525;19;1553;-34
2024/02/20 01:35:26;;;;;;;;;;;;;;;18.38;59.73;101678.06;7393122;19;1762;-33
2024/02/20 01:37:58;;;;;;;;;;;;;;;18.47;59.42;101671.19;7394363;19;1856;-35
2024/02/20 01:40:27;;;;;;;;;;;;;;;18.51;59.39;101672.69;7394359;19;1422;-35
2024/02/20 01:42:58;;;;;;;;;;;;;;;18.52;59.33;101663.66;7393441;19;1498;-37
2024/02/20 01:45:27;;;;;;;;;;;;;;;18.58;59.03;101668.59;7393638;19;1459;-37
2024/02/20 01:47:55;;;;;;;;;;;;;;;18.55;59.20;101674.16;7395262;19;1069;-34
2024/02/20 01:50:24;;;;;;;;;;;;;;;18.57;59.09;101674.91;7394816;19;1017;-34
2024/02/20 01:52:53;;;;;;;;;;;;;;;18.60;58.90;101671.16;7393943;19;1579;-33
2024/02/20 01:55:24;;;;;;;;;;;;;;;18.59;58.92;101651.56;7393673;19;1976;-35
2024/02/20 01:57:53;;;;;;;;;;;;;;;18.59;59.21;101664.09;7391117;19;2052;-34
2024/02/20 02:00:21;;;;;;;;;;;;;;;18.65;59.08;101663.66;7394349;19;1560;-35
2024/02/20 02:02:49;;;;;;;;;;;;;;;18.67;58.87;101625.06;7392920;19;1806;-35
2024/02/20 02:05:18;;;;;;;;;;;;;;;18.66;58.89;101660.88;7392361;19;1162;-35
2024/02/20 02:07:46;;;;;;;;;;;;;;;18.67;58.74;101646.50;7393082;19;1524;-34
2024/02/20 02:10:14;;;;;;;;;;;;;;;19.01;58.08;101637.81;7394186;19;1061;-36
2024/02/20 02:12:45;;;;;;;;;;;;;;;19.46;57.21;101644.22;7378469;19;1706;-34
2024/02/20 02:15:14;;;;;;;;;;;;;;;19.93;55.86;101622.75;7390830;19;1532;-34
2024/02/20 02:17:42;;;;;;;;;;;;;;;19.80;56.29;101624.72;7392499;19;1822;-34
2024/02/20 02:20:13;;;;;;;;;;;;;;;19.85;56.32;101639.44;7393297;19;1484;-35
2024/02/20 02:22:41;;;;;;;;;;;;;;;19.86;56.24;101630.44;7392520;19;1766;-35
2024/02/20 02:25:10;;;;;;;;;;;;;;;19.84;56.04;101635.06;7392591;19;1651;-33
2024/02/20 02:27:41;;;;;;;;;;;;;;;19.88;56.23;101659.00;7391561;19;1426;-33
2024/02/20 02:30:10;;;;;;;;;;;;;;;19.90;56.27;101638.25;7393012;19;1172;-34
2024/02/20 02:32:39;;;;;;;;;;;;;;;19.91;56.18;101637.28;7393255;19;1825;-35
2024/02/20 02:35:09;;;;;;;;;;;;;;;19.90;56.38;101649.00;7392517;19;1349;-35
2024/02/20 02:37:37;;;;;;;;;;;;;;;19.92;56.21;101633.63;7392063;19;1295;-35
2024/02/20 02:40:08;;;;;;;;;;;;;;;20.00;56.22;101640.09;7389355;19;1846;-35
2024/02/20 02:42:37;;;;;;;;;;;;;;;19.69;56.44;101622.81;7391568;19;1265;-34
2024/02/20 02:45:08;;;;;;;;;;;;;;;19.99;56.14;101634.84;7393541;19;1144;-35
2024/02/20 02:47:36;;;;;;;;;;;;;;;19.99;56.21;101634.84;7392075;19;1509;-35
2024/02/20 02:50:05;;;;;;;;;;;;;;;19.99;56.35;101645.56;7392536;19;1883;-35
2024/02/20 02:52:34;;;;;;;;;;;;;;;19.98;56.39;101627.78;7391435;19;1507;-35
2024/02/20 02:55:02;;;;;;;;;;;;;;;20.07;56.04;101621.66;7392122;19;1498;-36
2024/02/20 02:57:30;;;;;;;;;;;;;;;20.08;56.00;101634.13;7391370;19;1481;-34
2024/02/20 02:59:59;;;;;;;;;;;;;;;20.09;56.25;101637.66;7389439;19;1866;-35
2024/02/20 03:02:30;;;;;;;;;;;;;;;20.01;56.19;101632.88;7391180;19;1165;-35
2024/02/20 03:04:58;;;;;;;;;;;;;;;20.01;56.19;101628.38;7390477;19;1411;-35
2024/02/20 03:07:27;;;;;;;;;;;;;;;20.04;56.28;101627.28;7391981;19;1232;-35
2024/02/20 03:09:56;;;;;;;;;;;;;;;20.06;56.19;101636.91;7390722;19;1688;-41
2024/02/20 03:12:24;;;;;;;;;;;;;;;20.04;56.29;101627.28;7391261;19;1076;-35
2024/02/20 03:14:54;;;;;;;;;;;;;;;20.07;56.17;101632.41;7377406;19;1866;-35
2024/02/20 03:17:22;;;;;;;;;;;;;;;20.12;55.90;101619.47;7390847;19;1933;-33
2024/02/20 03:19:53;;;;;;;;;;;;;;;20.13;56.04;101636.44;7389832;19;1855;-34
2024/02/20 03:22:22;;;;;;;;;;;;;;;20.18;55.94;101628.88;7390324;19;1927;-34
2024/02/20 03:24:52;;;;;;;;;;;;;;;20.21;55.96;101608.00;7390475;19;1238;-34
2024/02/20 03:27:20;;;;;;;;;;;;;;;20.16;55.80;101626.31;7389780;19;1276;-35
2024/02/20 03:29:48;;;;;;;;;;;;;;;20.18;55.88;101637.78;7389830;19;1125;-34
2024/02/20 03:32:17;;;;;;;;;;;;;;;20.15;55.96;101640.69;7389555;19;1438;-37
2024/02/20 03:34:45;;;;;;;;;;;;;;;20.20;56.00;101640.34;7390398;19;1418;-36
2024/02/20 03:37:16;;;;;;;;;;;;;;;20.16;56.01;101637.06;7390916;19;1103;-35
2024/02/20 03:39:44;;;;;;;;;;;;;;;20.19;55.88;101641.31;7388298;19;2507;-34
2024/02/20 03:42:13;;;;;;;;;;;;;;;20.17;55.82;101641.44;7389729;19;1478;-36
2024/02/20 03:44:41;;;;;;;;;;;;;;;20.24;55.89;101639.13;7389634;19;1564;-38
2024/02/20 03:47:10;;;;;;;;;;;;;;;20.27;55.80;101644.25;7389186;19;1807;-35
2024/02/20 03:49:38;;;;;;;;;;;;;;;20.29;55.87;101652.19;7390611;19;1560;-35
2024/02/20 03:52:07;;;;;;;;;;;;;;;20.32;55.63;101641.22;7389863;19;1576;-35
2024/02/20 03:54:38;;;;;;;;;;;;;;;20.26;55.67;101648.75;7389104;19;1675;-35
2024/02/20 03:57:06;;;;;;;;;;;;;;;20.26;55.90;101658.66;7388462;19;1291;-35
2024/02/20 03:59:35;;;;;;;;;;;;;;;20.29;55.71;101649.50;7388060;19;1847;-36
2024/02/20 04:02:03;;;;;;;;;;;;;;;19.63;57.33;101648.28;7389864;19;1165;-35
2024/02/20 04:04:31;;;;;;;;;;;;;;;19.25;58.07;101661.94;7389429;19;1182;-40
2024/02/20 04:06:59;;;;;;;;;;;;;;;18.95;58.83;101651.69;7389938;19;1406;-35
2024/02/20 04:09:28;;;;;;;;;;;;;;;18.78;59.16;101650.19;7390550;19;1225;-35
2024/02/20 04:11:59;;;;;;;;;;;;;;;18.63;59.39;101652.19;7389184;19;1196;-35
2024/02/20 04:14:27;;;;;;;;;;;;;;;18.58;59.58;101665.94;7374834;19;1914;-35
2024/02/20 04:16:55;;;;;;;;;;;;;;;18.80;59.15;101656.34;7390127;19;1414;-35
2024/02/20 04:19:24;;;;;;;;;;;;;;;19.00;58.69;101647.69;7389846;19;1873;-36
2024/02/20 04:21:52;;;;;;;;;;;;;;;19.24;58.17;101649.53;7388816;19;1587;-35
2024/02/20 04:24:20;;;;;;;;;;;;;;;19.34;57.73;101645.16;7388962;19;1583;-35
2024/02/20 04:26:49;;;;;;;;;;;;;;;19.36;57.77;101656.63;7389561;19;1339;-35
2024/02/20 04:29:20;;;;;;;;;;;;;;;18.89;58.71;101644.94;7388953;19;1393;-35
2024/02/20 04:31:48;;;;;;;;;;;;;;;18.66;59.31;101666.22;7389247;19;1311;-35
2024/02/20 04:34:16;;;;;;;;;;;;;;;18.47;59.44;101649.75;7388174;19;1893;-35
2024/02/20 04:36:44;;;;;;;;;;;;;;;18.36;60.07;101666.59;7388828;19;1759;-35
2024/02/20 04:39:13;;;;;;;;;;;;;;;18.71;59.25;101659.69;7387727;19;1849;-34
2024/02/20 04:41:42;;;;;;;;;;;;;;;19.00;58.62;101653.06;7389522;19;1535;-33
2024/02/20 04:44:11;;;;;;;;;;;;;;;19.15;58.51;101660.94;7389223;19;1596;-36
2024/02/20 04:46:42;;;;;;;;;;;;;;;19.31;57.77;101645.38;7387958;19;1318;-34
2024/02/20 04:49:10;;;;;;;;;;;;;;;19.44;57.44;101656.06;7387611;19;1632;-34
2024/02/20 04:51:38;;;;;;;;;;;;;;;19.44;57.50;101656.06;7388059;19;1552;-34
2024/02/20 04:54:06;;;;;;;;;;;;;;;19.37;57.69;101661.00;7386787;19;1568;-35
2024/02/20 04:56:35;;;;;;;;;;;;;;;19.30;57.84;101670.50;7385551;19;2509;-33
2024/02/20 04:59:03;;;;;;;;;;;;;;;19.26;58.05;101666.34;7386648;19;1841;-36
2024/02/20 05:01:32;;;;;;;;;;;;;;;19.25;57.98;101645.84;7385976;19;1668;-34
2024/02/20 05:04:03;;;;;;;;;;;;;;;19.18;58.13;101664.25;7387391;19;1596;-33
2024/02/20 05:06:31;;;;;;;;;;;;;;;19.21;57.97;101666.66;7391154;19;997;-35
2024/02/20 05:09:00;;;;;;;;;;;;;;;19.17;58.07;101670.56;7393748;19;1787;-36
2024/02/20 05:11:28;;;;;;;;;;;;;;;19.17;58.23;101675.06;7394183;19;1253;-34
2024/02/20 05:13:57;;;;;;;;;;;;;;;19.20;58.22;101685.53;7378986;19;1336;-34
2024/02/20 05:16:25;;;;;;;;;;;;;;;19.17;58.20;101681.28;7393176;19;1149;-34
2024/02/20 05:18:53;;;;;;;;;;;;;;;19.20;58.16;101682.88;7391974;19;1834;-49
2024/02/20 05:21:25;;;;;;;;;;;;;;;19.23;58.01;101679.97;7389597;19;1393;-35
2024/02/20 05:23:53;;;;;;;;;;;;;;;19.24;58.01;101687.06;7393884;19;1509;-36
2024/02/20 05:26:21;;;;;;;;;;;;;;;19.33;57.67;101685.50;7390579;19;1517;-37
2024/02/20 05:28:49;;;;;;;;;;;;;;;19.23;57.40;101696.06;7393968;19;1339;-35
2024/02/20 05:31:28;;;;;;;;;;;;;;;19.26;57.28;101687.81;7393677;19;1348;-37
2024/02/20 05:33:56;;;;;;;;;;;;;;;19.31;57.18;101693.66;7394769;19;1517;-35
2024/02/20 05:36:29;;;;;;;;;;;;;;;19.20;57.31;101702.50;7393514;19;1244;-35
2024/02/20 05:38:59;;;;;;;;;;;;;;;19.11;57.61;101691.63;7392865;19;1842;-35
2024/02/20 05:41:28;;;;;;;;;;;;;;;19.34;56.83;101714.91;7391649;19;1258;-35
2024/02/20 05:43:57;;;;;;;;;;;;;;;19.29;57.07;101698.28;7393434;19;1497;-36
2024/02/20 05:46:27;;;;;;;;;;;;;;;19.34;57.23;101712.22;7393358;19;1548;-34
2024/02/20 05:48:55;;;;;;;;;;;;;;;19.25;57.67;101723.63;7393375;19;1246;-36
2024/02/20 05:51:27;;;;;;;;;;;;;;;18.91;55.86;101677.84;7388046;19;1208;-40
2024/02/20 05:53:56;;;;;;;;;;;;;;;19.17;56.74;101710.78;7389900;19;1480;-36
2024/02/20 05:56:24;;;;;;;;;;;;;;;19.31;56.47;101731.19;7392139;19;1528;-36
2024/02/20 05:58:52;;;;;;;;;;;;;;;19.38;56.58;101734.31;7389729;19;1544;-36
2024/02/20 06:01:21;;;;;;;;;;;;;;;19.33;56.73;101734.63;7387434;19;1274;-35
2024/02/20 06:03:49;;;;;;;;;;;;;;;19.27;56.94;101733.25;7389954;19;1112;-36
2024/02/20 06:06:17;;;;;;;;;;;;;;;19.30;56.81;101744.72;7388974;19;1822;-35
2024/02/20 06:08:50;;;;;;;;;;;;;;;19.33;56.76;101750.72;7388994;19;1859;-35
2024/02/20 06:11:21;;;;;;;;;;;;;;;19.36;56.90;101747.81;7388420;19;1909;-35
2024/02/20 06:13:49;;;;;;;;;;;;;;;19.32;56.83;101746.34;7377474;19;1357;-33
2024/02/20 06:16:18;;;;;;;;;;;;;;;19.26;56.94;101731.56;7390443;19;1397;-35
2024/02/20 06:18:46;;;;;;;;;;;;;;;19.28;56.83;101750.22;7387783;19;1169;-35
2024/02/20 06:21:14;;;;;;;;;;;;;;;19.29;56.82;101746.56;7391025;19;1847;-36
2024/02/20 06:23:44;;;;;;;;;;;;;;;19.38;56.75;101761.13;7392184;19;1181;-35
2024/02/20 06:26:18;;;;;;;;;;;;;;;19.38;56.67;101743.19;7391550;19;1501;-35
2024/02/20 06:28:47;;;;;;;;;;;;;;;19.38;56.78;101756.63;7391898;19;1620;-36
2024/02/20 06:31:16;;;;;;;;;;;;;;;19.38;56.63;101748.56;7393187;19;1099;-35
2024/02/20 06:33:44;;;;;;;;;;;;;;;19.28;57.03;101742.19;7391293;19;1908;-35
2024/02/20 06:36:13;;;;;;;;;;;;;;;19.26;56.91;101761.06;7391514;19;1389;-40
2024/02/20 06:38:41;;;;;;;;;;;;;;;19.31;56.84;101760.72;7390726;19;1816;-41
2024/02/20 06:41:09;;;;;;;;;;;;;;;19.31;56.75;101747.28;7389822;19;1862;-41
2024/02/20 06:43:40;;;;;;;;;;;;;;;19.33;56.74;101768.66;7390379;19;1821;-41
2024/02/20 06:46:09;;;;;;;;;;;;;;;19.37;56.78;101760.25;7391274;19;1569;-41
2024/02/20 06:48:37;;;;;;;;;;;;;;;19.37;56.79;101768.28;7391710;19;1814;-41
2024/02/20 06:51:06;;;;;;;;;;;;;;;19.37;56.61;101757.56;7392250;19;1577;-41
2024/02/20 06:53:34;;;;;;;;;;;;;;;19.42;56.50;101760.78;7392431;19;1735;-40
2024/02/20 06:56:03;;;;;;;;;;;;;;;19.43;56.36;101757.09;7392570;19;1609;-42
2024/02/20 06:58:31;;;;;;;;;;;;;;;19.48;56.49;101759.47;7393147;19;1003;-40
2024/02/20 07:01:02;;;;;;;;;;;;;;;19.36;56.74;101746.94;7388925;19;1861;-40
2024/02/20 07:03:30;;;;;;;;;;;;;;;19.37;56.85;101749.53;7390603;19;1842;-40
2024/02/20 07:05:58;;;;;;;;;;;;;;;19.39;56.59;101750.25;7390252;19;1581;-41
2024/02/20 07:08:27;;;;;;;;;;;;;;;19.45;56.61;101749.81;7390353;19;1867;-40
2024/02/20 07:10:55;;;;;;;;;;;;;;;19.37;56.70;101741.47;7388412;19;1613;-40
2024/02/20 07:13:24;;;;;;;;;;;;;;;19.46;56.62;101746.16;7387969;19;1497;-40
2024/02/20 07:15:52;;;;;;;;;;;;;;;19.47;56.54;101753.22;7373540;19;1783;-40
2024/02/20 07:18:23;;;;;;;;;;;;;;;19.43;56.30;101749.06;7387717;19;1473;-35
2024/02/20 07:20:52;;;;;;;;;;;;;;;19.48;56.49;101744.22;7384238;19;1851;-36
2024/02/20 07:23:20;;;;;;;;;;;;;;;19.54;56.42;101744.75;7388756;19;1474;-35
2024/02/20 07:25:48;;;;;;;;;;;;;;;19.56;56.30;101748.16;7388510;19;1319;-34
2024/02/20 07:28:17;;;;;;;;;;;;;;;19.56;56.13;101750.84;7387633;19;1854;-35
2024/02/20 07:30:45;;;;;;;;;;;;;;;19.50;55.45;101751.28;7387218;19;1447;-35
2024/02/20 07:33:13;;;;;;;;;;;;;;;19.38;54.64;101743.19;7389194;19;1588;-34
2024/02/20 07:35:44;;;;;;;;;;;;;;;19.43;54.01;101746.38;7386706;19;1739;-35
2024/02/20 07:38:13;;;;;;;;;;;;;;;19.35;53.75;101747.94;7387422;19;1529;-35
2024/02/20 07:40:41;;;;;;;;;;;;;;;19.21;52.72;101722.13;7384293;19;1863;-35
2024/02/20 07:43:10;;;;;;;;;;;;;;;19.25;52.17;101737.03;7388318;19;1514;-34
2024/02/20 07:45:38;;;;;;;;;;;;;;;19.39;52.40;101736.84;7387523;19;1469;-35
2024/02/20 07:48:11;;;;;;;;;;;;;;;19.61;52.41;101746.81;7387878;19;1141;-34
2024/02/20 07:50:39;;;;;;;;;;;;;;;19.65;52.14;101744.78;7387216;19;1563;-36
2024/02/20 07:53:10;;;;;;;;;;;;;;;19.68;53.37;101747.25;7389085;19;1177;-35
2024/02/20 07:55:42;;;;;;;;;;;;;;;19.68;53.37;101747.25;7388190;19;1485;-34
2024/02/20 07:58:10;;;;;;;;;;;;;;;19.64;53.94;101689.41;7387046;19;1581;-34
2024/02/20 08:00:38;;;;;;;;;;;;;;;19.28;56.13;101748.38;7385568;19;1833;-34
2024/02/20 08:03:08;;;;;;;;;;;;;;;18.96;57.03;101732.00;7387565;19;1516;-34
2024/02/20 08:05:36;;;;;;;;;;;;;;;18.74;57.32;101742.50;7387552;19;1714;-35
2024/02/20 08:08:05;;;;;;;;;;;;;;;18.62;57.84;101742.44;7387355;19;1550;-35
2024/02/20 08:10:36;;;;;;;;;;;;;;;19.11;56.71;101745.25;7236419;19;2936273;-36
2024/02/20 08:13:05;;;;;;;;;;;;;;;19.64;55.45;101743.06;7386932;19;1570;-35
2024/02/20 08:15:34;;;;;;;;;;;;;;;19.46;55.87;101730.06;7374243;19;1533;-41
2024/02/20 08:18:02;;;;;;;;;;;;;;;19.06;56.68;101737.53;7387265;19;1566;-39
2024/02/20 08:20:32;;;;;;;;;;;;;;;18.82;57.26;101737.47;7388589;19;1853;-35
2024/02/20 08:23:00;;;;;;;;;;;;;;;18.68;57.88;101743.78;7371601;19;1312;-34
2024/02/20 08:25:29;;;;;;;;;;;;;;;18.96;57.52;101744.50;7384636;19;1893;-36
2024/02/20 08:27:59;;;;;;;;;;;;;;;19.20;56.82;101736.50;7384546;19;1716;-35
2024/02/20 08:30:28;;;;;;;;;;;;;;;19.13;56.76;101736.09;7382748;19;1840;-34
2024/02/20 08:32:56;;;;;;;;;;;;;;;18.89;57.65;101730.72;7384573;19;1723;-35
2024/02/20 08:35:24;;;;;;;;;;;;;;;18.71;58.03;101734.69;7383287;19;1599;-35
2024/02/20 08:37:54;;;;;;;;;;;;;;;18.62;58.25;101737.06;7381776;19;1504;-35
2024/02/20 08:40:23;;;;;;;;;;;;;;;18.90;58.08;101737.81;7383892;19;1849;-35
2024/02/20 08:42:52;;;;;;;;;;;;;;;19.28;57.18;101726.09;7389044;19;1515;-33
2024/02/20 08:45:23;;;;;;;;;;;;;;;19.26;57.34;101749.47;7391720;19;1031;-34
2024/02/20 08:47:54;;;;;;;;;;;;;;;18.91;58.27;101723.41;7391087;19;1923;-35
2024/02/20 08:50:23;;;;;;;;;;;;;;;18.72;58.76;101739.94;7388455;19;1832;-34
2024/02/20 08:52:51;;;;;;;;;;;;;;;18.71;58.70;101732.88;7389382;19;1395;-35
2024/02/20 08:55:19;;;;;;;;;;;;;;;19.15;57.85;101733.31;7391466;19;1816;-36
2024/02/20 08:57:47;;;;;;;;;;;;;;;19.25;56.75;101732.50;7390026;19;1407;-35
2024/02/20 09:00:17;;;;;;;;;;;;;;;18.89;57.32;101730.72;7394626;19;1861;-35
2024/02/20 09:02:48;;;;;;;;;;;;;;;18.61;56.81;101738.03;7392500;19;1451;-38
2024/02/20 09:05:17;;;;;;;;;;;;;;;18.54;56.30;101739.41;7393858;19;1396;-34
2024/02/20 09:07:45;;;;;;;;;;;;;;;18.97;55.33;101738.19;7391031;19;1289;-34
2024/02/20 09:10:14;;;;;;;;;;;;;;;19.42;54.61;101727.75;7394623;19;1202;-34
2024/02/20 09:12:42;;;;;;;;;;;;;;;19.16;54.96;101748.41;7394348;19;1654;-35
2024/02/20 09:15:11;;;;;;;;;;;;;;;18.79;55.87;101735.00;7380979;19;1044;-35
2024/02/20 09:17:39;;;;;;;;;;;;;;;18.57;56.31;101736.53;7395255;19;1289;-36
2024/02/20 09:20:11;;;;;;;;;;;;;;;18.49;56.23;101734.38;7391534;19;1845;-36
2024/02/20 09:22:40;;;;;;;;;;;;;;;18.94;55.33;101735.72;7390884;19;1478;-34
2024/02/20 09:25:09;;;;;;;;;;;;;;;19.34;54.55;101743.53;7389471;19;1932;-35
2024/02/20 09:27:42;;;;;;;;;;;;;;;19.38;54.78;101735.16;7390354;19;1466;-35
2024/02/20 09:30:10;;;;;;;;;;;;;;;18.98;55.65;101739.91;7389240;19;1747;-35
2024/02/20 09:32:40;;;;;;;;;;;;;;;18.78;56.48;101744.88;7386899;19;2441;-35
2024/02/20 09:35:11;;;;;;;;;;;;;;;18.64;56.78;101745.84;7390210;19;1846;-35
2024/02/20 09:37:39;;;;;;;;;;;;;;;19.05;55.96;101733.97;7389557;19;1528;-34
2024/02/20 09:40:08;;;;;;;;;;;;;;;19.60;55.00;101741.59;7394904;19;1677;-36
2024/02/20 09:42:41;;;;;;;;;;;;;;;19.42;55.13;101739.31;7394656;19;1748;-35
2024/02/20 09:45:13;;;;;;;;;;;;;;;19.10;56.19;101743.50;7394452;19;1030;-36
2024/02/20 09:47:42;;;;;;;;;;;;;;;18.92;56.42;101735.00;7394233;19;1460;-36
2024/02/20 09:50:15;;;;;;;;;;;;;;;18.79;56.83;101733.19;7393989;19;1823;-35
2024/02/20 09:52:44;;;;;;;;;;;;;;;19.06;56.50;101727.66;7392408;19;1586;-34
2024/02/20 09:55:13;;;;;;;;;;;;;;;19.44;55.59;101715.06;7392942;19;1914;-34
2024/02/20 09:57:42;;;;;;;;;;;;;;;19.19;55.99;101708.84;7393539;19;1407;-34
2024/02/20 10:00:11;;;;;;;;;;;;;;;18.94;56.81;101731.25;7393079;19;1558;-36
2024/02/20 10:02:40;;;;;;;;;;;;;;;18.76;57.17;101716.44;7389091;19;1842;-40
2024/02/20 10:05:10;;;;;;;;;;;;;;;18.95;56.82;101722.22;7393402;19;1641;-40
2024/02/20 10:07:41;;;;;;;;;;;;;;;19.41;55.95;101700.03;7392449;19;1757;-39
2024/02/20 10:10:10;;;;;;;;;;;;;;;19.68;55.26;101710.50;7392433;19;1700;-39
2024/02/20 10:12:39;;;;;;;;;;;;;;;19.49;55.63;101702.16;7392280;19;1416;-39
2024/02/20 10:15:11;;;;;;;;;;;;;;;19.20;55.74;101694.47;7382177;19;1019;-39
2024/02/20 10:17:40;;;;;;;;;;;;;;;19.06;56.22;101682.09;7393622;19;1277;-39
2024/02/20 10:20:11;;;;;;;;;;;;;;;18.98;56.43;101687.16;7393049;19;1457;-37
2024/02/20 10:22:42;;;;;;;;;;;;;;;19.38;55.69;101684.19;7390781;19;1837;-35
2024/02/20 10:25:12;;;;;;;;;;;;;;;19.88;54.91;101685.84;7393178;19;1906;-34
2024/02/20 10:27:40;;;;;;;;;;;;;;;20.34;53.78;101682.22;7393432;19;1860;-36
2024/02/20 10:30:10;;;;;;;;;;;;;;;20.25;53.89;101690.03;7392968;19;1360;-37
2024/02/20 10:32:39;;;;;;;;;;;;;;;20.23;54.14;101683.94;7393342;19;1467;-36
2024/02/20 10:35:09;;;;;;;;;;;;;;;20.31;54.32;101669.03;7393292;19;1605;-36
2024/02/20 10:37:37;;;;;;;;;;;;;;;20.34;54.15;101671.50;7391778;19;1395;-34
2024/02/20 10:40:10;;;;;;;;;;;;;;;20.27;54.25;101684.53;7393395;19;1277;-37
2024/02/20 10:42:39;;;;;;;;;;;;;;;20.15;54.61;101675.59;7391717;19;1874;-35
2024/02/20 10:45:09;;;;;;;;;;;;;;;20.11;53.76;101676.81;7393395;19;1440;-35
2024/02/20 10:47:39;;;;;;;;;;;;;;;20.30;53.38;101664.66;7391127;19;1425;-36
2024/02/20 10:50:09;;;;;;;;;;;;;;;20.12;53.77;101670.50;7392645;19;1716;-33
2024/02/20 10:52:38;;;;;;;;;;;;;;;20.15;53.92;101677.44;7392381;19;1705;-35
2024/02/20 10:55:10;;;;;;;;;;;;;;;20.21;53.89;101655.47;7388136;19;1396;-36
2024/02/20 10:57:39;;;;;;;;;;;;;;;20.23;53.89;101650.84;7391178;19;1444;-35
2024/02/20 11:00:11;;;;;;;;;;;;;;;20.22;53.87;101641.94;7390185;19;1400;-36
2024/02/20 11:02:39;;;;;;;;;;;;;;;20.12;54.13;101653.53;7390803;19;1848;-34
2024/02/20 11:05:09;;;;;;;;;;;;;;;20.18;54.14;101651.22;7387128;19;1394;-35
2024/02/20 11:07:38;;;;;;;;;;;;;;;20.31;53.84;101642.16;7388799;19;1371;-34
2024/02/20 11:10:06;;;;;;;;;;;;;;;20.19;54.00;101630.56;7388208;19;1535;-34
2024/02/20 11:12:37;;;;;;;;;;;;;;;20.14;54.20;101632.78;7389574;19;1384;-34
2024/02/20 11:15:09;;;;;;;;;;;;;;;20.22;54.33;101635.72;7373961;19;1293;-34
2024/02/20 11:17:38;;;;;;;;;;;;;;;20.31;54.22;101631.44;7389537;19;1661;-32
2024/02/20 11:20:07;;;;;;;;;;;;;;;20.31;54.31;101634.09;7390162;19;1558;-34
2024/02/20 11:22:35;;;;;;;;;;;;;;;20.27;54.39;101620.94;7388492;19;1920;-33
2024/02/20 11:25:11;;;;;;;;;;;;;;;20.33;54.43;101616.03;7390715;19;1225;-34
2024/02/20 11:27:42;;;;;;;;;;;;;;;20.27;54.06;101629.00;7388844;19;1232;-35
2024/02/20 11:30:19;;;;;;;;;;;;;;;20.14;54.34;101620.22;7386169;19;1424;-34
2024/02/20 11:32:47;;;;;;;;;;;;;;;20.23;54.32;101608.75;7388314;19;1443;-34
2024/02/20 11:35:27;;;;;;;;;;;;;;;20.37;53.97;101606.75;7388122;19;1534;-34
2024/02/20 11:37:56;;;;;;;;;;;;;;;20.14;54.50;101600.56;7384813;19;1592;-34
2024/02/20 11:40:25;;;;;;;;;;;;;;;20.24;54.33;101607.75;7386950;19;1288;-34
2024/02/20 11:42:57;;;;;;;;;;;;;;;20.37;54.15;101606.75;7386319;19;1929;-34
2024/02/20 11:45:29;;;;;;;;;;;;;;;20.29;54.38;101607.38;7387389;19;1628;-35
2024/02/20 11:48:03;;;;;;;;;;;;;;;20.35;54.25;101612.28;7391898;19;1129;-34
2024/02/20 11:50:32;;;;;;;;;;;;;;;20.27;54.42;101612.88;7392294;19;1104;-35
2024/02/20 11:53:01;;;;;;;;;;;;;;;20.18;54.61;101620.81;7391943;19;1812;-35
2024/02/20 11:55:32;;;;;;;;;;;;;;;20.10;55.02;101609.84;7391590;19;1855;-35
2024/02/20 11:58:04;;;;;;;;;;;;;;;20.01;54.89;101606.03;7391341;19;1515;-33
2024/02/20 12:00:34;;;;;;;;;;;;;;;20.18;54.50;101618.97;7391483;19;2013;-34
2024/02/20 12:03:03;;;;;;;;;;;;;;;20.13;54.72;101599.69;7389700;19;1857;-35
2024/02/20 12:05:37;;;;;;;;;;;;;;;20.09;54.63;101592.84;7391225;19;1407;-33
2024/02/20 12:08:12;;;;;;;;;;;;;;;20.05;54.93;101602.13;7391073;19;1608;-32
2024/02/20 12:10:41;;;;;;;;;;;;;;;20.09;54.76;101598.22;7388352;19;1486;-34
2024/02/20 12:13:19;;;;;;;;;;;;;;;20.15;54.73;101596.88;7390472;19;1578;-34
2024/02/20 12:15:48;;;;;;;;;;;;;;;20.08;54.85;101590.31;7377502;19;1206;-34
2024/02/20 12:18:25;;;;;;;;;;;;;;;19.99;55.10;101594.56;7397417;19;1521;-34
2024/02/20 12:20:53;;;;;;;;;;;;;;;20.10;54.93;101583.00;7398331;19;1283;-34
2024/02/20 12:23:22;;;;;;;;;;;;;;;20.23;54.50;101589.94;7395230;19;1879;-32
2024/02/20 12:25:54;;;;;;;;;;;;;;;20.15;54.57;101581.63;7398265;19;1154;-35
2024/02/20 12:28:25;;;;;;;;;;;;;;;20.12;54.68;101592.63;7398847;19;1062;-34
2024/02/20 12:30:53;;;;;;;;;;;;;;;20.11;54.74;101585.53;7397702;19;1678;-34
2024/02/20 12:33:21;;;;;;;;;;;;;;;20.15;54.62;101580.78;7398837;19;1109;-33
2024/02/20 12:35:49;;;;;;;;;;;;;;;20.05;54.96;101575.28;7396886;19;1543;-34
2024/02/20 12:38:18;;;;;;;;;;;;;;;20.00;55.09;101588.25;7395980;19;1388;-32
2024/02/20 12:40:47;;;;;;;;;;;;;;;19.92;55.17;101572.72;7396657;19;1641;-33
2024/02/20 12:43:15;;;;;;;;;;;;;;;20.14;54.81;101577.25;7393203;19;1857;-34
2024/02/20 12:45:46;;;;;;;;;;;;;;;20.08;54.82;101579.56;7396255;19;1455;-34
2024/02/20 12:48:14;;;;;;;;;;;;;;;20.01;55.13;101582.72;7397616;19;1728;-34
2024/02/20 12:50:44;;;;;;;;;;;;;;;20.04;54.89;101578.97;7398005;19;1568;-34
2024/02/20 12:53:13;;;;;;;;;;;;;;;20.09;54.88;101576.75;7398358;19;1032;-33
2024/02/20 12:55:41;;;;;;;;;;;;;;;20.11;54.93;101574.78;7396797;19;2047;-33
2024/02/20 12:58:10;;;;;;;;;;;;;;;20.04;54.82;101573.59;7396337;19;1871;-34